sensor_id;sensor_type;location;lat;lon;timestamp;pressure;altitude;pressure_sealevel;temperature;humidity
5574;BME280;2563;52.242;7.956;2024-02-28T00:01:16;100487.94;;;-2.10;100.00
5574;BME280;2563;52.242;7.956;2024-02-28T00:03:41;100477.31;;;-1.97;100.00
5574;BME280;2563;52.242;7.956;2024-02-28T00:06:07;100473.66;;;-1.76;100.00
5574;BME280;2563;52.242;7.956;2024-02-28T00:08:32;100476.41;;;-1.65;100.00
5574;BME280;2563;52.242;7.956;2024-02-28T00:10:57;100480.84;;;-1.57;100.00
5574;BME280;2563;52.242;7.956;2024-02-28T00:13:23;100477.59;;;-1.53;100.00
5574;BME280;2563;52.242;7.956;2024-02-28T00:15:49;100468.50;;;-1.44;100.00
5574;BME280;2563;52.242;7.956;2024-02-28T00:18:15;100477.13;;;-1.35;100.00
5574;BME280;2563;52.242;7.956;2024-02-28T00:20:41;100468.47;;;-1.10;100.00
5574;BME280;2563;52.242;7.956;2024-02-28T00:23:06;100470.28;;;-1.02;100.00
5574;BME280;2563;52.242;7.956;2024-02-28T00:25:31;100467.09;;;-0.95;100.00
5574;BME280;2563;52.242;7.956;2024-02-28T00:27:57;100449.59;;;-0.84;100.00
5574;BME280;2563;52.242;7.956;2024-02-28T00:30:22;100442.91;;;-0.82;100.00
5574;BME280;2563;52.242;7.956;2024-02-28T00:32:47;100451.44;;;-0.77;100.00
5574;BME280;2563;52.242;7.956;2024-02-28T00:35:13;100443.94;;;-0.73;100.00
5574;BME280;2563;52.242;7.956;2024-02-28T00:37:38;100448.91;;;-0.79;100.00
5574;BME280;2563;52.242;7.956;2024-02-28T00:40:04;100440.63;;;-0.72;100.00
5574;BME280;2563;52.242;7.956;2024-02-28T00:42:30;100439.91;;;-0.65;100.00
5574;BME280;2563;52.242;7.956;2024-02-28T00:44:55;100437.31;;;-0.68;100.00
5574;BME280;2563;52.242;7.956;2024-02-28T00:47:21;100443.19;;;-0.69;100.00
5574;BME280;2563;52.242;7.956;2024-02-28T00:49:46;100442.44;;;-0.65;100.00
5574;BME280;2563;52.242;7.956;2024-02-28T00:52:11;100431.53;;;-0.60;100.00
5574;BME280;2563;52.242;7.956;2024-02-28T00:54:37;100445.13;;;-0.55;100.00
5574;BME280;2563;52.242;7.956;2024-02-28T00:57:02;100451.84;;;-0.57;100.00
5574;BME280;2563;52.242;7.956;2024-02-28T00:59:28;100449.41;;;-0.51;100.00
5574;BME280;2563;52.242;7.956;2024-02-28T01:01:53;100450.25;;;-0.51;100.00
5574;BME280;2563;52.242;7.956;2024-02-28T01:04:19;100451.28;;;-0.41;100.00
5574;BME280;2563;52.242;7.956;2024-02-28T01:06:44;100440.47;;;-0.35;100.00
5574;BME280;2563;52.242;7.956;2024-02-28T01:09:09;100429.50;;;-0.34;100.00
5574;BME280;2563;52.242;7.956;2024-02-28T01:11:35;100436.28;;;-0.32;100.00
5574;BME280;2563;52.242;7.956;2024-02-28T01:14:00;100428.63;;;-0.36;100.00
5574;BME280;2563;52.242;7.956;2024-02-28T01:16:25;100431.19;;;-0.35;100.00
5574;BME280;2563;52.242;7.956;2024-02-28T01:18:51;100433.72;;;-0.35;100.00
5574;BME280;2563;52.242;7.956;2024-02-28T01:21:16;100443.09;;;-0.29;100.00
5574;BME280;2563;52.242;7.956;2024-02-28T01:23:42;100443.97;;;-0.29;100.00
5574;BME280;2563;52.242;7.956;2024-02-28T01:26:07;100449.81;;;-0.30;100.00
5574;BME280;2563;52.242;7.956;2024-02-28T01:28:32;100455.75;;;-0.28;100.00
5574;BME280;2563;52.242;7.956;2024-02-28T01:30:58;100458.38;;;-0.23;100.00
5574;BME280;2563;52.242;7.956;2024-02-28T01:33:25;100446.59;;;-0.23;100.00
5574;BME280;2563;52.242;7.956;2024-02-28T01:35:51;100455.81;;;-0.26;100.00
5574;BME280;2563;52.242;7.956;2024-02-28T01:38:16;100458.34;;;-0.26;100.00
5574;BME280;2563;52.242;7.956;2024-02-28T01:40:45;100460.09;;;-0.20;100.00
5574;BME280;2563;52.242;7.956;2024-02-28T01:43:11;100462.44;;;-0.31;100.00
5574;BME280;2563;52.242;7.956;2024-02-28T01:45:37;100465.00;;;-0.30;100.00
5574;BME280;2563;52.242;7.956;2024-02-28T01:48:03;100465.78;;;-0.32;100.00
5574;BME280;2563;52.242;7.956;2024-02-28T01:50:33;100469.16;;;-0.32;100.00
5574;BME280;2563;52.242;7.956;2024-02-28T01:52:58;100469.13;;;-0.35;100.00
5574;BME280;2563;52.242;7.956;2024-02-28T01:55:25;100485.00;;;-0.42;100.00
5574;BME280;2563;52.242;7.956;2024-02-28T01:57:52;100481.41;;;-0.53;100.00
5574;BME280;2563;52.242;7.956;2024-02-28T02:00:18;100489.03;;;-0.52;100.00
5574;BME280;2563;52.242;7.956;2024-02-28T02:02:44;100493.28;;;-0.49;100.00
5574;BME280;2563;52.242;7.956;2024-02-28T02:05:10;100501.63;;;-0.53;100.00
5574;BME280;2563;52.242;7.956;2024-02-28T02:07:36;100511.44;;;-0.67;100.00
5574;BME280;2563;52.242;7.956;2024-02-28T02:10:01;100528.38;;;-0.65;100.00
5574;BME280;2563;52.242;7.956;2024-02-28T02:12:27;100532.53;;;-0.67;100.00
5574;BME280;2563;52.242;7.956;2024-02-28T02:14:52;100549.34;;;-0.67;100.00
5574;BME280;2563;52.242;7.956;2024-02-28T02:17:18;100570.38;;;-0.70;100.00
5574;BME280;2563;52.242;7.956;2024-02-28T02:19:43;100566.88;;;-0.75;100.00
5574;BME280;2563;52.242;7.956;2024-02-28T02:22:10;100589.53;;;-0.79;100.00
5574;BME280;2563;52.242;7.956;2024-02-28T02:24:38;100603.00;;;-0.80;100.00
5574;BME280;2563;52.242;7.956;2024-02-28T02:27:04;100625.22;;;-0.66;100.00
5574;BME280;2563;52.242;7.956;2024-02-28T02:29:30;100634.28;;;-0.75;100.00
5574;BME280;2563;52.242;7.956;2024-02-28T02:31:56;100650.00;;;-0.87;100.00
5574;BME280;2563;52.242;7.956;2024-02-28T02:34:21;100662.59;;;-0.89;100.00
5574;BME280;2563;52.242;7.956;2024-02-28T02:36:47;100678.44;;;-0.94;100.00
5574;BME280;2563;52.242;7.956;2024-02-28T02:39:12;100726.53;;;-0.91;100.00
5574;BME280;2563;52.242;7.956;2024-02-28T02:41:37;100735.53;;;-1.01;100.00
5574;BME280;2563;52.242;7.956;2024-02-28T02:44:03;100767.47;;;-1.04;100.00
5574;BME280;2563;52.242;7.956;2024-02-28T02:46:28;100786.72;;;-1.08;100.00
5574;BME280;2563;52.242;7.956;2024-02-28T02:48:54;100817.53;;;-1.20;100.00
5574;BME280;2563;52.242;7.956;2024-02-28T02:51:19;100832.91;;;-1.42;100.00
5574;BME280;2563;52.242;7.956;2024-02-28T02:53:45;100873.50;;;-1.36;100.00
5574;BME280;2563;52.242;7.956;2024-02-28T02:56:10;100905.41;;;-1.38;100.00
5574;BME280;2563;52.242;7.956;2024-02-28T02:58:36;100933.19;;;-1.37;100.00
5574;BME280;2563;52.242;7.956;2024-02-28T03:01:01;100949.31;;;-1.33;100.00
5574;BME280;2563;52.242;7.956;2024-02-28T03:03:26;100978.66;;;-1.37;100.00
5574;BME280;2563;52.242;7.956;2024-02-28T03:05:52;100998.47;;;-1.49;100.00
5574;BME280;2563;52.242;7.956;2024-02-28T03:08:17;101026.97;;;-1.53;100.00
5574;BME280;2563;52.242;7.956;2024-02-28T03:10:42;101076.56;;;-1.54;100.00
5574;BME280;2563;52.242;7.956;2024-02-28T03:13:08;101091.53;;;-1.58;100.00
5574;BME280;2563;52.242;7.956;2024-02-28T03:15:33;101123.06;;;-1.47;100.00
5574;BME280;2563;52.242;7.956;2024-02-28T03:17:59;101151.22;;;-1.36;100.00
5574;BME280;2563;52.242;7.956;2024-02-28T03:20:24;101179.88;;;-1.34;100.00
5574;BME280;2563;52.242;7.956;2024-02-28T03:22:51;101225.50;;;-1.30;100.00
5574;BME280;2563;52.242;7.956;2024-02-28T03:25:16;101250.38;;;-1.16;100.00
5574;BME280;2563;52.242;7.956;2024-02-28T03:27:41;101263.09;;;-1.15;100.00
5574;BME280;2563;52.242;7.956;2024-02-28T03:30:07;101282.63;;;-1.09;100.00
5574;BME280;2563;52.242;7.956;2024-02-28T03:32:32;101308.75;;;-1.09;100.00
5574;BME280;2563;52.242;7.956;2024-02-28T03:34:58;101340.81;;;-1.08;100.00
5574;BME280;2563;52.242;7.956;2024-02-28T03:37:23;101368.59;;;-1.08;100.00
5574;BME280;2563;52.242;7.956;2024-02-28T03:39:48;101398.19;;;-1.03;100.00
5574;BME280;2563;52.242;7.956;2024-02-28T03:42:14;101422.59;;;-1.04;100.00
5574;BME280;2563;52.242;7.956;2024-02-28T03:44:39;101453.78;;;-1.03;100.00
5574;BME280;2563;52.242;7.956;2024-02-28T03:47:05;101461.34;;;-1.03;100.00
5574;BME280;2563;52.242;7.956;2024-02-28T03:49:30;101473.25;;;-1.01;100.00
5574;BME280;2563;52.242;7.956;2024-02-28T03:51:55;101484.34;;;-0.97;100.00
5574;BME280;2563;52.242;7.956;2024-02-28T03:54:21;101511.78;;;-0.84;100.00
5574;BME280;2563;52.242;7.956;2024-02-28T03:56:46;101528.78;;;-0.80;100.00
5574;BME280;2563;52.242;7.956;2024-02-28T03:59:11;101540.88;;;-0.73;100.00
5574;BME280;2563;52.242;7.956;2024-02-28T04:01:37;101602.81;;;-0.61;100.00
5574;BME280;2563;52.242;7.956;2024-02-28T04:04:02;101630.66;;;-0.60;100.00
5574;BME280;2563;52.242;7.956;2024-02-28T04:06:27;101647.88;;;-0.51;100.00
5574;BME280;2563;52.242;7.956;2024-02-28T04:08:53;101664.78;;;-0.50;100.00
5574;BME280;2563;52.242;7.956;2024-02-28T04:11:19;101675.88;;;-0.47;100.00
5574;BME280;2563;52.242;7.956;2024-02-28T04:13:44;101696.41;;;-0.39;100.00
5574;BME280;2563;52.242;7.956;2024-02-28T04:16:10;101718.31;;;-0.39;100.00
5574;BME280;2563;52.242;7.956;2024-02-28T04:18:36;101739.34;;;-0.40;100.00
5574;BME280;2563;52.242;7.956;2024-02-28T04:21:01;101764.69;;;-0.39;100.00
5574;BME280;2563;52.242;7.956;2024-02-28T04:23:27;101774.81;;;-0.39;100.00
5574;BME280;2563;52.242;7.956;2024-02-28T04:25:52;101796.78;;;-0.38;100.00
5574;BME280;2563;52.242;7.956;2024-02-28T04:28:17;101818.00;;;-0.34;100.00
5574;BME280;2563;52.242;7.956;2024-02-28T04:30:43;101827.53;;;-0.29;100.00
5574;BME280;2563;52.242;7.956;2024-02-28T04:33:08;101822.31;;;-0.32;100.00
5574;BME280;2563;52.242;7.956;2024-02-28T04:35:34;101840.84;;;-0.33;100.00
5574;BME280;2563;52.242;7.956;2024-02-28T04:37:59;101844.22;;;-0.32;100.00
5574;BME280;2563;52.242;7.956;2024-02-28T04:40:25;101867.13;;;-0.29;100.00
5574;BME280;2563;52.242;7.956;2024-02-28T04:42:50;101899.34;;;-0.25;100.00
5574;BME280;2563;52.242;7.956;2024-02-28T04:45:15;101907.75;;;-0.26;100.00
5574;BME280;2563;52.242;7.956;2024-02-28T04:47:41;101923.13;;;-0.22;100.00
5574;BME280;2563;52.242;7.956;2024-02-28T04:50:06;101929.06;;;-0.19;100.00
5574;BME280;2563;52.242;7.956;2024-02-28T04:52:33;101918.91;;;-0.21;100.00
5574;BME280;2563;52.242;7.956;2024-02-28T04:54:58;101911.63;;;-0.13;100.00
5574;BME280;2563;52.242;7.956;2024-02-28T04:57:24;101938.47;;;-0.17;100.00
5574;BME280;2563;52.242;7.956;2024-02-28T04:59:49;101952.66;;;-0.20;100.00
5574;BME280;2563;52.242;7.956;2024-02-28T05:02:15;101961.78;;;-0.24;100.00
5574;BME280;2563;52.242;7.956;2024-02-28T05:04:40;101983.78;;;-0.23;100.00
5574;BME280;2563;52.242;7.956;2024-02-28T05:07:05;101999.56;;;-0.29;100.00
5574;BME280;2563;52.242;7.956;2024-02-28T05:09:33;102007.06;;;-0.30;100.00
5574;BME280;2563;52.242;7.956;2024-02-28T05:11:58;102023.84;;;-0.32;100.00
5574;BME280;2563;52.242;7.956;2024-02-28T05:14:24;102028.38;;;-0.25;100.00
5574;BME280;2563;52.242;7.956;2024-02-28T05:16:49;102024.84;;;-0.29;100.00
5574;BME280;2563;52.242;7.956;2024-02-28T05:19:15;102047.63;;;-0.29;100.00
5574;BME280;2563;52.242;7.956;2024-02-28T05:21:43;102050.81;;;-0.33;100.00
5574;BME280;2563;52.242;7.956;2024-02-28T05:24:09;102062.13;;;-0.25;100.00
5574;BME280;2563;52.242;7.956;2024-02-28T05:26:36;102068.03;;;-0.24;100.00
5574;BME280;2563;52.242;7.956;2024-02-28T05:29:02;102064.31;;;-0.32;100.00
5574;BME280;2563;52.242;7.956;2024-02-28T05:31:29;102060.41;;;-0.26;100.00
5574;BME280;2563;52.242;7.956;2024-02-28T05:33:55;102051.28;;;-0.22;100.00
5574;BME280;2563;52.242;7.956;2024-02-28T05:36:25;102056.63;;;-0.16;100.00
5574;BME280;2563;52.242;7.956;2024-02-28T05:38:52;102062.66;;;-0.12;100.00
5574;BME280;2563;52.242;7.956;2024-02-28T05:41:18;102059.22;;;-0.14;100.00
5574;BME280;2563;52.242;7.956;2024-02-28T05:43:44;102062.66;;;-0.12;100.00
5574;BME280;2563;52.242;7.956;2024-02-28T05:46:11;102061.22;;;-0.07;100.00
5574;BME280;2563;52.242;7.956;2024-02-28T05:48:36;102068.88;;;-0.06;100.00
5574;BME280;2563;52.242;7.956;2024-02-28T05:51:02;102074.25;;;0.02;100.00
5574;BME280;2563;52.242;7.956;2024-02-28T05:53:28;102082.66;;;0.01;100.00
5574;BME280;2563;52.242;7.956;2024-02-28T05:55:57;102082.66;;;0.01;100.00
5574;BME280;2563;52.242;7.956;2024-02-28T05:58:23;102085.31;;;0.04;100.00
5574;BME280;2563;52.242;7.956;2024-02-28T06:00:50;102092.38;;;0.11;100.00
5574;BME280;2563;52.242;7.956;2024-02-28T06:03:16;102105.84;;;0.10;100.00
5574;BME280;2563;52.242;7.956;2024-02-28T06:05:41;102112.75;;;0.14;100.00
5574;BME280;2563;52.242;7.956;2024-02-28T06:08:06;102113.66;;;0.15;100.00
5574;BME280;2563;52.242;7.956;2024-02-28T06:10:32;102118.09;;;0.20;100.00
5574;BME280;2563;52.242;7.956;2024-02-28T06:12:57;102116.50;;;0.23;100.00
5574;BME280;2563;52.242;7.956;2024-02-28T06:15:22;102125.16;;;0.28;100.00
5574;BME280;2563;52.242;7.956;2024-02-28T06:17:47;102127.78;;;0.29;100.00
5574;BME280;2563;52.242;7.956;2024-02-28T06:20:13;102131.16;;;0.30;100.00
5574;BME280;2563;52.242;7.956;2024-02-28T06:22:39;102133.28;;;0.20;100.00
5574;BME280;2563;52.242;7.956;2024-02-28T06:25:05;102146.78;;;0.19;100.00
5574;BME280;2563;52.242;7.956;2024-02-28T06:27:33;102135.91;;;0.22;100.00
5574;BME280;2563;52.242;7.956;2024-02-28T06:29:59;102143.53;;;0.24;100.00
5574;BME280;2563;52.242;7.956;2024-02-28T06:32:24;102143.41;;;0.20;100.00
5574;BME280;2563;52.242;7.956;2024-02-28T06:34:50;102147.97;;;0.28;100.00
5574;BME280;2563;52.242;7.956;2024-02-28T06:37:15;102148.91;;;0.30;100.00
5574;BME280;2563;52.242;7.956;2024-02-28T06:39:41;102152.22;;;0.29;100.00
5574;BME280;2563;52.242;7.956;2024-02-28T06:42:07;102142.25;;;0.32;100.00
5574;BME280;2563;52.242;7.956;2024-02-28T06:44:32;102150.56;;;0.29;100.00
5574;BME280;2563;52.242;7.956;2024-02-28T06:46:58;102148.25;;;0.34;100.00
5574;BME280;2563;52.242;7.956;2024-02-28T06:49:23;102147.69;;;0.41;100.00
5574;BME280;2563;52.242;7.956;2024-02-28T06:51:49;102143.22;;;0.35;100.00
5574;BME280;2563;52.242;7.956;2024-02-28T06:54:14;102148.69;;;0.45;100.00
5574;BME280;2563;52.242;7.956;2024-02-28T06:56:40;102144.63;;;0.48;100.00
5574;BME280;2563;52.242;7.956;2024-02-28T06:59:05;102142.28;;;0.53;100.00
5574;BME280;2563;52.242;7.956;2024-02-28T07:01:32;102139.56;;;0.48;100.00
5574;BME280;2563;52.242;7.956;2024-02-28T07:03:57;102141.28;;;0.49;100.00
5574;BME280;2563;52.242;7.956;2024-02-28T07:06:23;102139.63;;;0.50;100.00
5574;BME280;2563;52.242;7.956;2024-02-28T07:08:48;102135.41;;;0.50;100.00
5574;BME280;2563;52.242;7.956;2024-02-28T07:11:14;102137.03;;;0.48;100.00
5574;BME280;2563;52.242;7.956;2024-02-28T07:13:39;102128.19;;;0.59;100.00
5574;BME280;2563;52.242;7.956;2024-02-28T07:16:05;102124.72;;;0.57;100.00
5574;BME280;2563;52.242;7.956;2024-02-28T07:18:31;102113.88;;;0.60;100.00
5574;BME280;2563;52.242;7.956;2024-02-28T07:20:57;102115.47;;;0.58;100.00
5574;BME280;2563;52.242;7.956;2024-02-28T07:23:22;102114.06;;;0.64;100.00
5574;BME280;2563;52.242;7.956;2024-02-28T07:25:47;102124.25;;;0.66;100.00
5574;BME280;2563;52.242;7.956;2024-02-28T07:28:13;102121.06;;;0.70;100.00
5574;BME280;2563;52.242;7.956;2024-02-28T07:30:38;102128.91;;;0.76;100.00
5574;BME280;2563;52.242;7.956;2024-02-28T07:33:05;102123.78;;;0.75;100.00
5574;BME280;2563;52.242;7.956;2024-02-28T07:35:31;102117.47;;;0.86;100.00
5574;BME280;2563;52.242;7.956;2024-02-28T07:37:56;102128.63;;;0.90;100.00
5574;BME280;2563;52.242;7.956;2024-02-28T07:40:21;102125.16;;;0.88;100.00
5574;BME280;2563;52.242;7.956;2024-02-28T07:42:47;102118.97;;;1.02;100.00
5574;BME280;2563;52.242;7.956;2024-02-28T07:45:12;102109.41;;;1.17;100.00
5574;BME280;2563;52.242;7.956;2024-02-28T07:47:38;102112.84;;;1.18;100.00
5574;BME280;2563;52.242;7.956;2024-02-28T07:50:06;102123.41;;;1.28;100.00
5574;BME280;2563;52.242;7.956;2024-02-28T07:52:31;102126.38;;;1.18;100.00
5574;BME280;2563;52.242;7.956;2024-02-28T07:55:00;102126.69;;;1.26;100.00
5574;BME280;2563;52.242;7.956;2024-02-28T07:57:26;102118.28;;;1.27;100.00
5574;BME280;2563;52.242;7.956;2024-02-28T07:59:51;102112.69;;;1.36;100.00
5574;BME280;2563;52.242;7.956;2024-02-28T08:02:17;102119.44;;;1.35;100.00
5574;BME280;2563;52.242;7.956;2024-02-28T08:04:45;102126.75;;;1.27;100.00
5574;BME280;2563;52.242;7.956;2024-02-28T08:07:10;102130.63;;;1.40;100.00
5574;BME280;2563;52.242;7.956;2024-02-28T08:09:35;102144.50;;;1.27;100.00
5574;BME280;2563;52.242;7.956;2024-02-28T08:12:01;102161.63;;;1.33;100.00
5574;BME280;2563;52.242;7.956;2024-02-28T08:14:27;102175.09;;;1.53;100.00
5574;BME280;2563;52.242;7.956;2024-02-28T08:16:52;102184.44;;;1.75;100.00
5574;BME280;2563;52.242;7.956;2024-02-28T08:19:17;102189.94;;;2.10;100.00
5574;BME280;2563;52.242;7.956;2024-02-28T08:21:43;102206.03;;;2.10;100.00
5574;BME280;2563;52.242;7.956;2024-02-28T08:24:08;102208.66;;;2.12;100.00
5574;BME280;2563;52.242;7.956;2024-02-28T08:26:34;102214.25;;;2.03;100.00
5574;BME280;2563;52.242;7.956;2024-02-28T08:28:59;102218.91;;;2.15;100.00
5574;BME280;2563;52.242;7.956;2024-02-28T08:31:24;102211.03;;;2.07;100.00
5574;BME280;2563;52.242;7.956;2024-02-28T08:33:50;102210.38;;;2.13;100.00
5574;BME280;2563;52.242;7.956;2024-02-28T08:36:16;102221.47;;;2.15;100.00
5574;BME280;2563;52.242;7.956;2024-02-28T08:38:41;102221.53;;;1.94;100.00
5574;BME280;2563;52.242;7.956;2024-02-28T08:41:07;102224.81;;;1.91;100.00
5574;BME280;2563;52.242;7.956;2024-02-28T08:43:42;102218.56;;;2.06;100.00
5574;BME280;2563;52.242;7.956;2024-02-28T08:46:07;102223.66;;;2.06;100.00
5574;BME280;2563;52.242;7.956;2024-02-28T08:48:33;102227.72;;;2.23;100.00
5574;BME280;2563;52.242;7.956;2024-02-28T08:50:58;102201.66;;;2.29;100.00
5574;BME280;2563;52.242;7.956;2024-02-28T08:53:24;102195.78;;;2.30;100.00
5574;BME280;2563;52.242;7.956;2024-02-28T08:55:49;102182.03;;;2.49;100.00
5574;BME280;2563;52.242;7.956;2024-02-28T08:58:14;102182.75;;;2.69;100.00
5574;BME280;2563;52.242;7.956;2024-02-28T09:00:40;102175.78;;;2.89;100.00
5574;BME280;2563;52.242;7.956;2024-02-28T09:03:05;102148.31;;;2.79;100.00
5574;BME280;2563;52.242;7.956;2024-02-28T09:05:31;102146.25;;;3.19;100.00
5574;BME280;2563;52.242;7.956;2024-02-28T09:07:56;102142.53;;;3.35;100.00
5574;BME280;2563;52.242;7.956;2024-02-28T09:10:23;102131.75;;;3.44;100.00
5574;BME280;2563;52.242;7.956;2024-02-28T09:12:51;102129.75;;;3.34;100.00
5574;BME280;2563;52.242;7.956;2024-02-28T09:15:17;102122.78;;;3.55;100.00
5574;BME280;2563;52.242;7.956;2024-02-28T09:17:43;102124.34;;;3.80;100.00
5574;BME280;2563;52.242;7.956;2024-02-28T09:20:09;102121.91;;;3.83;100.00
5574;BME280;2563;52.242;7.956;2024-02-28T09:22:34;102130.06;;;3.73;100.00
5574;BME280;2563;52.242;7.956;2024-02-28T09:25:00;102130.53;;;3.89;100.00
5574;BME280;2563;52.242;7.956;2024-02-28T09:27:29;102131.75;;;4.01;100.00
5574;BME280;2563;52.242;7.956;2024-02-28T09:29:54;102114.88;;;4.37;100.00
5574;BME280;2563;52.242;7.956;2024-02-28T09:32:19;102115.03;;;4.76;100.00
5574;BME280;2563;52.242;7.956;2024-02-28T09:34:45;102111.19;;;4.92;100.00
5574;BME280;2563;52.242;7.956;2024-02-28T09:37:10;102117.75;;;5.17;100.00
5574;BME280;2563;52.242;7.956;2024-02-28T09:39:39;102124.13;;;5.00;100.00
5574;BME280;2563;52.242;7.956;2024-02-28T09:42:07;102138.41;;;4.93;100.00
5574;BME280;2563;52.242;7.956;2024-02-28T09:44:36;102134.78;;;5.18;100.00
5574;BME280;2563;52.242;7.956;2024-02-28T09:47:02;102127.22;;;4.86;100.00
5574;BME280;2563;52.242;7.956;2024-02-28T09:49:31;102099.59;;;4.72;100.00
5574;BME280;2563;52.242;7.956;2024-02-28T09:51:57;102059.56;;;5.04;100.00
5574;BME280;2563;52.242;7.956;2024-02-28T09:54:23;102043.09;;;5.27;100.00
5574;BME280;2563;52.242;7.956;2024-02-28T09:56:49;102040.91;;;5.46;100.00
5574;BME280;2563;52.242;7.956;2024-02-28T09:59:15;102049.09;;;4.93;100.00
5574;BME280;2563;52.242;7.956;2024-02-28T10:01:43;102059.00;;;4.79;100.00
5574;BME280;2563;52.242;7.956;2024-02-28T10:04:12;102057.84;;;5.03;100.00
5574;BME280;2563;52.242;7.956;2024-02-28T10:06:41;102065.28;;;6.13;100.00
5574;BME280;2563;52.242;7.956;2024-02-28T10:09:06;102066.31;;;6.75;100.00
5574;BME280;2563;52.242;7.956;2024-02-28T10:11:33;102049.63;;;6.45;100.00
5574;BME280;2563;52.242;7.956;2024-02-28T10:14:00;102033.91;;;6.74;100.00
5574;BME280;2563;52.242;7.956;2024-02-28T10:16:26;102007.50;;;6.76;100.00
5574;BME280;2563;52.242;7.956;2024-02-28T10:18:52;101941.19;;;6.34;100.00
5574;BME280;2563;52.242;7.956;2024-02-28T10:21:18;101898.34;;;6.78;100.00
5574;BME280;2563;52.242;7.956;2024-02-28T10:23:44;101835.38;;;6.90;100.00
5574;BME280;2563;52.242;7.956;2024-02-28T10:26:11;101748.31;;;6.88;100.00
5574;BME280;2563;52.242;7.956;2024-02-28T10:28:37;101647.31;;;6.52;100.00
5574;BME280;2563;52.242;7.956;2024-02-28T10:31:04;101557.88;;;6.62;100.00
5574;BME280;2563;52.242;7.956;2024-02-28T10:33:30;101483.75;;;6.72;100.00
5574;BME280;2563;52.242;7.956;2024-02-28T10:35:58;101383.84;;;6.49;100.00
5574;BME280;2563;52.242;7.956;2024-02-28T10:38:26;101286.53;;;6.25;100.00
5574;BME280;2563;52.242;7.956;2024-02-28T10:40:52;101191.00;;;6.03;100.00
5574;BME280;2563;52.242;7.956;2024-02-28T10:43:19;101105.00;;;6.20;100.00
5574;BME280;2563;52.242;7.956;2024-02-28T10:45:45;101032.63;;;6.38;100.00
5574;BME280;2563;52.242;7.956;2024-02-28T10:48:13;100932.91;;;5.95;100.00
5574;BME280;2563;52.242;7.956;2024-02-28T10:50:39;100876.66;;;5.73;100.00
5574;BME280;2563;52.242;7.956;2024-02-28T10:53:14;100853.72;;;6.04;100.00
5574;BME280;2563;52.242;7.956;2024-02-28T10:55:40;100828.16;;;6.04;100.00
5574;BME280;2563;52.242;7.956;2024-02-28T10:58:07;100791.50;;;6.13;100.00
5574;BME280;2563;52.242;7.956;2024-02-28T11:00:34;100768.47;;;6.33;100.00
5574;BME280;2563;52.242;7.956;2024-02-28T11:03:01;100758.94;;;6.69;100.00
5574;BME280;2563;52.242;7.956;2024-02-28T11:05:37;100730.97;;;6.35;100.00
5574;BME280;2563;52.242;7.956;2024-02-28T11:08:07;100726.66;;;6.45;100.00
5574;BME280;2563;52.242;7.956;2024-02-28T11:10:33;100734.28;;;6.58;100.00
5574;BME280;2563;52.242;7.956;2024-02-28T11:12:59;100718.22;;;6.15;100.00
5574;BME280;2563;52.242;7.956;2024-02-28T11:15:28;100721.47;;;6.55;100.00
5574;BME280;2563;52.242;7.956;2024-02-28T11:17:53;100720.53;;;6.78;100.00
5574;BME280;2563;52.242;7.956;2024-02-28T11:20:19;100706.81;;;6.88;100.00
5574;BME280;2563;52.242;7.956;2024-02-28T11:22:45;100702.75;;;6.56;100.00
5574;BME280;2563;52.242;7.956;2024-02-28T11:25:10;100701.91;;;6.51;100.00
5574;BME280;2563;52.242;7.956;2024-02-28T11:27:48;100715.31;;;6.90;100.00
5574;BME280;2563;52.242;7.956;2024-02-28T11:30:14;100710.97;;;7.05;100.00
5574;BME280;2563;52.242;7.956;2024-02-28T11:32:40;100709.38;;;6.84;100.00
5574;BME280;2563;52.242;7.956;2024-02-28T11:35:06;100709.31;;;6.96;100.00
5574;BME280;2563;52.242;7.956;2024-02-28T11:37:32;100696.41;;;7.10;100.00
5574;BME280;2563;52.242;7.956;2024-02-28T11:39:58;100698.28;;;6.86;100.00
5574;BME280;2563;52.242;7.956;2024-02-28T11:42:23;100697.50;;;6.75;100.00
5574;BME280;2563;52.242;7.956;2024-02-28T11:44:55;100695.84;;;6.65;100.00
5574;BME280;2563;52.242;7.956;2024-02-28T11:47:22;100703.47;;;6.77;100.00
5574;BME280;2563;52.242;7.956;2024-02-28T11:49:48;100703.53;;;6.65;100.00
5574;BME280;2563;52.242;7.956;2024-02-28T11:52:14;100701.78;;;6.76;100.00
5574;BME280;2563;52.242;7.956;2024-02-28T11:54:39;100700.84;;;6.86;100.00
5574;BME280;2563;52.242;7.956;2024-02-28T11:57:06;100700.94;;;6.75;100.00
5574;BME280;2563;52.242;7.956;2024-02-28T11:59:32;100693.94;;;6.97;100.00
5574;BME280;2563;52.242;7.956;2024-02-28T12:01:57;100691.22;;;7.16;100.00
5574;BME280;2563;52.242;7.956;2024-02-28T12:04:25;100686.28;;;6.96;100.00
5574;BME280;2563;52.242;7.956;2024-02-28T12:06:51;100680.28;;;6.98;100.00
5574;BME280;2563;52.242;7.956;2024-02-28T12:09:17;100684.69;;;6.81;100.00
5574;BME280;2563;52.242;7.956;2024-02-28T12:11:43;100681.88;;;7.16;100.00
5574;BME280;2563;52.242;7.956;2024-02-28T12:14:09;100668.19;;;7.19;100.00
5574;BME280;2563;52.242;7.956;2024-02-28T12:16:38;100658.66;;;7.35;100.00
5574;BME280;2563;52.242;7.956;2024-02-28T12:19:08;100658.59;;;7.39;100.00
5574;BME280;2563;52.242;7.956;2024-02-28T12:21:36;100661.78;;;7.63;100.00
5574;BME280;2563;52.242;7.956;2024-02-28T12:24:01;100658.34;;;7.65;100.00
5574;BME280;2563;52.242;7.956;2024-02-28T12:26:27;100654.19;;;7.55;100.00
5574;BME280;2563;52.242;7.956;2024-02-28T12:28:52;100653.31;;;7.58;100.00
5574;BME280;2563;52.242;7.956;2024-02-28T12:31:18;100650.09;;;7.37;100.00
5574;BME280;2563;52.242;7.956;2024-02-28T12:33:44;100638.59;;;7.75;100.00
5574;BME280;2563;52.242;7.956;2024-02-28T12:36:09;100639.22;;;7.96;100.00
5574;BME280;2563;52.242;7.956;2024-02-28T12:38:35;100636.28;;;8.25;100.00
5574;BME280;2563;52.242;7.956;2024-02-28T12:41:01;100628.03;;;8.66;100.00
5574;BME280;2563;52.242;7.956;2024-02-28T12:43:27;100628.16;;;8.59;100.00
5574;BME280;2563;52.242;7.956;2024-02-28T12:45:53;100621.56;;;8.98;100.00
5574;BME280;2563;52.242;7.956;2024-02-28T12:48:18;100635.53;;;8.80;100.00
5574;BME280;2563;52.242;7.956;2024-02-28T12:50:43;100642.41;;;8.78;100.00
5574;BME280;2563;52.242;7.956;2024-02-28T12:53:09;100656.19;;;8.74;100.00
5574;BME280;2563;52.242;7.956;2024-02-28T12:55:34;100662.53;;;8.47;100.00
5574;BME280;2563;52.242;7.956;2024-02-28T12:58:00;100659.75;;;9.18;100.00